Time;durP1;ratioP1;P1;durP2;ratioP2;P2;SDS_P1;SDS_P2;PMS_P1;PMS_P2;Temp;Humidity;BMP_temperature;BMP_pressure;BME280_temperature;BME280_humidity;BME280_pressure;Samples;Min_cycle;Max_cycle;Signal;HPM_P1;HPM_P2
2021/03/11 00:01:02;;;;;;;29.55;17.08;;;7.00;93.50;;;;;;5075272;28;20517;-54
2021/03/11 00:03:28;;;;;;;30.42;15.82;;;7.00;93.70;;;;;;5035659;28;20040;-55
2021/03/11 00:05:54;;;;;;;25.75;14.93;;;7.10;93.00;;;;;;5068094;28;20043;-53
2021/03/11 00:08:20;;;;;;;30.42;16.80;;;7.10;92.90;;;;;;5075223;28;20037;-55
2021/03/11 00:10:46;;;;;;;31.55;17.88;;;7.20;92.70;;;;;;5067308;28;20079;-54
2021/03/11 00:13:13;;;;;;;30.88;15.75;;;7.00;93.20;;;;;;5065294;28;20040;-56
2021/03/11 00:15:41;;;;;;;29.75;16.35;;;7.10;93.30;;;;;;5068288;28;20044;-54
2021/03/11 00:18:12;;;;;;;26.77;16.13;;;7.20;93.10;;;;;;5071111;28;20032;-57
2021/03/11 00:20:38;;;;;;;32.03;16.90;;;7.10;93.10;;;;;;5072456;28;20044;-55
2021/03/11 00:23:04;;;;;;;27.95;16.95;;;7.10;93.40;;;;;;5068741;28;20408;-54
2021/03/11 00:25:33;;;;;;;27.33;15.95;;;7.00;93.50;;;;;;5078749;28;20535;-58
2021/03/11 00:27:59;;;;;;;27.73;16.10;;;7.00;93.50;;;;;;5065508;28;20072;-57
2021/03/11 00:30:25;;;;;;;27.55;16.58;;;7.00;93.50;;;;;;5070312;28;20044;-55
2021/03/11 00:32:51;;;;;;;25.98;15.20;;;7.00;93.60;;;;;;5069415;28;20056;-56
2021/03/11 00:35:18;;;;;;;30.13;17.05;;;7.10;93.30;;;;;;5075462;28;20269;-54
2021/03/11 00:37:46;;;;;;;29.08;16.77;;;7.10;93.40;;;;;;5052268;28;20051;-57
2021/03/11 00:40:13;;;;;;;26.23;15.18;;;7.10;93.20;;;;;;5066851;28;20040;-55
2021/03/11 00:42:39;;;;;;;32.13;16.92;;;7.20;92.90;;;;;;5069447;28;20101;-57
2021/03/11 00:45:07;;;;;;;21.98;12.95;;;7.20;93.20;;;;;;5069746;28;20036;-56
2021/03/11 00:47:32;;;;;;;33.20;17.17;;;7.10;93.20;;;;;;5071333;28;20040;-57
2021/03/11 00:49:59;;;;;;;25.73;15.45;;;7.10;93.10;;;;;;5073605;28;20044;-57
2021/03/11 00:52:25;;;;;;;22.58;13.30;;;7.30;92.70;;;;;;5072706;28;20037;-57
2021/03/11 00:54:51;;;;;;;27.75;15.65;;;7.30;93.10;;;;;;5077690;28;20522;-57
2021/03/11 00:57:17;;;;;;;30.25;16.83;;;7.20;93.00;;;;;;5073821;28;20432;-52
2021/03/11 00:59:43;;;;;;;23.42;13.15;;;7.10;93.30;;;;;;5068834;28;20028;-55
2021/03/11 01:02:09;;;;;;;29.13;17.35;;;7.10;93.20;;;;;;5073607;28;20044;-55
2021/03/11 01:04:37;;;;;;;26.35;15.55;;;7.20;93.10;;;;;;5072974;28;20106;-57
2021/03/11 01:07:04;;;;;;;30.50;17.10;;;7.10;93.20;;;;;;5071118;28;20029;-55
2021/03/11 01:09:30;;;;;;;26.55;15.30;;;7.10;93.50;;;;;;5079409;28;20040;-55
2021/03/11 01:11:56;;;;;;;26.27;15.30;;;7.20;93.20;;;;;;5079804;28;20044;-53
2021/03/11 01:14:21;;;;;;;27.85;15.38;;;7.20;93.20;;;;;;5073027;28;20416;-56
2021/03/11 01:16:48;;;;;;;26.17;15.52;;;7.20;93.10;;;;;;5077438;28;20127;-53
2021/03/11 01:19:14;;;;;;;24.83;13.48;;;7.30;92.90;;;;;;5080322;28;20501;-54
2021/03/11 01:21:39;;;;;;;28.70;15.43;;;7.30;93.20;;;;;;5074680;28;20067;-55
2021/03/11 01:24:08;;;;;;;30.88;16.15;;;7.30;93.00;;;;;;5073496;28;20048;-54
2021/03/11 01:26:34;;;;;;;28.08;16.17;;;7.30;92.90;;;;;;5074822;28;20044;-54
2021/03/11 01:29:00;;;;;;;29.55;15.43;;;7.30;93.20;;;;;;5074474;28;20504;-54
2021/03/11 01:31:30;;;;;;;24.00;13.38;;;7.30;93.20;;;;;;5082063;28;20170;-56
2021/03/11 01:33:55;;;;;;;31.60;15.55;;;7.30;92.80;;;;;;5073339;28;20032;-54
2021/03/11 01:36:21;;;;;;;25.30;14.63;;;7.40;92.90;;;;;;5074974;28;20029;-55
2021/03/11 01:38:48;;;;;;;29.27;16.50;;;7.30;93.00;;;;;;5073692;28;20051;-54
2021/03/11 01:41:13;;;;;;;27.17;15.70;;;7.30;93.10;;;;;;5067780;28;20117;-52
2021/03/11 01:43:39;;;;;;;26.23;13.45;;;7.30;92.90;;;;;;5075017;28;20087;-55
2021/03/11 01:46:05;;;;;;;25.17;14.57;;;7.30;93.10;;;;;;5068090;28;20123;-54
2021/03/11 01:48:30;;;;;;;24.33;14.05;;;7.40;92.80;;;;;;5074178;28;20295;-54
2021/03/11 01:50:56;;;;;;;25.35;15.00;;;7.30;93.10;;;;;;5073123;28;20463;-55
2021/03/11 01:53:22;;;;;;;23.98;14.85;;;7.40;93.00;;;;;;5073026;28;20051;-55
2021/03/11 01:55:48;;;;;;;28.33;15.50;;;7.30;93.10;;;;;;5078230;28;20044;-56
2021/03/11 01:58:15;;;;;;;30.80;15.93;;;7.40;93.00;;;;;;5071539;28;20420;-55
2021/03/11 02:00:41;;;;;;;30.58;16.80;;;7.30;93.10;;;;;;5075567;28;20049;-56
2021/03/11 02:03:07;;;;;;;26.27;16.10;;;7.30;93.10;;;;;;5063334;28;20050;-53
2021/03/11 02:05:32;;;;;;;30.15;16.08;;;7.30;93.40;;;;;;5072217;28;20075;-57
2021/03/11 02:07:58;;;;;;;29.10;16.38;;;7.30;93.30;;;;;;5065880;28;20048;-55
2021/03/11 02:10:26;;;;;;;30.85;15.18;;;7.30;93.20;;;;;;5073342;28;20048;-55
2021/03/11 02:13:00;;;;;;;26.15;15.85;;;7.40;93.20;;;;;;5072728;28;20544;-57
2021/03/11 02:15:39;;;;;;;26.95;15.45;;;7.30;93.20;;;;;;5060604;28;20028;-55
2021/03/11 02:18:14;;;;;;;29.73;16.13;;;7.30;93.30;;;;;;5073918;28;20056;-53
2021/03/11 02:21:02;;;;;;;25.30;14.98;;;7.30;93.50;;;;;;5072712;28;20036;-55
2021/03/11 02:23:58;;;;;;;25.17;14.93;;;7.40;93.20;;;;;;5072141;28;20064;-56
2021/03/11 02:27:04;;;;;;;22.33;13.18;;;7.40;93.30;;;;;;5070671;28;20090;-55
2021/03/11 02:29:38;;;;;;;24.45;12.63;;;7.40;93.20;;;;;;5073240;28;20051;-53
2021/03/11 02:32:07;;;;;;;20.80;12.90;;;7.40;93.20;;;;;;5072389;28;20033;-55
2021/03/11 02:34:37;;;;;;;27.52;14.32;;;7.50;93.20;;;;;;5069269;28;20125;-53
2021/03/11 02:37:08;;;;;;;24.27;14.00;;;7.40;93.40;;;;;;5066892;28;20116;-54
2021/03/11 02:39:35;;;;;;;21.15;11.15;;;7.40;93.40;;;;;;5070877;28;20056;-52
2021/03/11 02:42:03;;;;;;;26.25;14.30;;;7.40;93.40;;;;;;5072911;28;20454;-55
2021/03/11 02:44:31;;;;;;;23.38;13.18;;;7.40;93.50;;;;;;5071760;28;20048;-54
2021/03/11 02:46:57;;;;;;;24.67;13.27;;;7.40;93.50;;;;;;5060691;28;20550;-55
2021/03/11 02:49:24;;;;;;;23.88;13.75;;;7.40;93.70;;;;;;5071869;28;20037;-54
2021/03/11 02:51:51;;;;;;;24.85;14.93;;;7.40;93.80;;;;;;5079688;28;20040;-56
2021/03/11 02:54:20;;;;;;;25.08;13.60;;;7.30;93.80;;;;;;5072842;28;20040;-57
2021/03/11 02:56:47;;;;;;;28.73;14.25;;;7.30;93.90;;;;;;5074446;28;20512;-55
2021/03/11 02:59:17;;;;;;;23.48;14.18;;;7.40;94.10;;;;;;5073919;28;20485;-58
2021/03/11 03:01:44;;;;;;;26.58;15.00;;;7.30;94.10;;;;;;5072519;28;20178;-56
2021/03/11 03:04:12;;;;;;;25.20;13.63;;;7.30;94.20;;;;;;5072478;28;20033;-58
2021/03/11 03:06:40;;;;;;;25.27;13.98;;;7.30;94.30;;;;;;5071309;28;20068;-58
2021/03/11 03:09:07;;;;;;;24.13;13.77;;;7.40;94.30;;;;;;5067533;28;20543;-57
2021/03/11 03:11:37;;;;;;;21.00;12.77;;;7.40;94.00;;;;;;5070192;28;20110;-56
2021/03/11 03:14:06;;;;;;;22.65;13.20;;;7.40;94.10;;;;;;5072631;28;20062;-57
2021/03/11 03:16:36;;;;;;;26.17;14.70;;;7.40;94.30;;;;;;5069792;28;20144;-57
2021/03/11 03:19:05;;;;;;;25.30;13.48;;;7.40;94.20;;;;;;5071017;28;20114;-56
2021/03/11 03:21:32;;;;;;;26.90;14.98;;;7.40;94.30;;;;;;5071350;28;20420;-57
2021/03/11 03:23:58;;;;;;;23.33;13.18;;;7.40;94.30;;;;;;5072389;28;20041;-57
2021/03/11 03:26:24;;;;;;;24.45;14.18;;;7.40;94.50;;;;;;5076161;28;20064;-58
2021/03/11 03:28:50;;;;;;;25.08;14.20;;;7.40;94.40;;;;;;5078734;28;20083;-58
2021/03/11 03:31:16;;;;;;;21.45;12.98;;;7.40;94.50;;;;;;5071715;28;20052;-56
2021/03/11 03:33:41;;;;;;;19.70;11.90;;;7.40;94.50;;;;;;5075403;28;20040;-56
2021/03/11 03:36:07;;;;;;;22.85;13.43;;;7.50;94.40;;;;;;5073252;28;20124;-54
2021/03/11 03:38:33;;;;;;;23.20;13.65;;;7.50;94.30;;;;;;5072591;28;20048;-55
2021/03/11 03:41:03;;;;;;;20.60;12.98;;;7.60;94.10;;;;;;5071330;28;20467;-54
2021/03/11 03:43:35;;;;;;;21.52;12.43;;;7.60;94.10;;;;;;5073559;28;20040;-55
2021/03/11 03:46:11;;;;;;;20.88;12.60;;;7.60;94.10;;;;;;5072668;28;20044;-56
2021/03/11 03:48:52;;;;;;;17.27;10.75;;;7.70;94.20;;;;;;5075184;28;20058;-55
2021/03/11 03:51:26;;;;;;;18.08;11.50;;;7.60;94.20;;;;;;5071596;28;21305;-55
2021/03/11 03:54:03;;;;;;;20.52;11.70;;;7.70;93.90;;;;;;5075565;28;20142;-51
2021/03/11 03:56:34;;;;;;;19.13;11.30;;;7.70;94.00;;;;;;5080389;28;20493;-54
2021/03/11 03:59:15;;;;;;;19.55;11.63;;;7.80;93.90;;;;;;5073188;28;20048;-54
2021/03/11 04:01:43;;;;;;;17.98;10.35;;;7.80;94.10;;;;;;5073413;28;20048;-55
2021/03/11 04:04:11;;;;;;;19.58;11.48;;;7.80;94.00;;;;;;5064696;28;20033;-56
2021/03/11 04:06:39;;;;;;;16.08;10.55;;;7.80;93.90;;;;;;5077041;28;20119;-53
2021/03/11 04:09:11;;;;;;;16.63;10.07;;;7.80;94.10;;;;;;5073041;28;20057;-54
2021/03/11 04:11:39;;;;;;;17.15;10.60;;;7.80;94.10;;;;;;5073180;28;20044;-54
2021/03/11 04:14:06;;;;;;;17.17;10.15;;;7.90;93.80;;;;;;5071676;28;20048;-54
2021/03/11 04:16:32;;;;;;;18.00;9.35;;;7.80;94.00;;;;;;5072136;28;20047;-55
2021/03/11 04:18:59;;;;;;;17.52;10.32;;;7.90;93.90;;;;;;5071699;28;20044;-55
2021/03/11 04:21:30;;;;;;;15.93;9.68;;;7.90;93.90;;;;;;5076856;28;20040;-54
2021/03/11 04:23:58;;;;;;;17.52;10.07;;;8.00;94.00;;;;;;5078507;28;20466;-53
2021/03/11 04:26:24;;;;;;;16.05;10.13;;;7.90;94.20;;;;;;5082507;28;20417;-52
2021/03/11 04:28:50;;;;;;;15.05;10.15;;;7.80;94.30;;;;;;5078152;28;20043;-56
2021/03/11 04:31:16;;;;;;;17.25;10.68;;;7.90;94.40;;;;;;5081585;28;20052;-56
2021/03/11 04:33:43;;;;;;;14.43;8.63;;;7.80;94.30;;;;;;5078594;28;20091;-55
2021/03/11 04:36:11;;;;;;;15.18;8.73;;;7.90;94.30;;;;;;5075473;28;20525;-55
2021/03/11 04:38:38;;;;;;;13.27;8.07;;;7.90;94.30;;;;;;5076139;28;20131;-54
2021/03/11 04:41:04;;;;;;;14.13;8.80;;;8.00;94.20;;;;;;5076579;28;20067;-54
2021/03/11 04:43:31;;;;;;;14.13;8.38;;;8.10;94.10;;;;;;5076488;28;20048;-54
2021/03/11 04:45:57;;;;;;;14.60;9.20;;;8.10;94.00;;;;;;5076802;28;20093;-55
2021/03/11 04:48:25;;;;;;;15.05;9.10;;;8.00;94.10;;;;;;5076131;28;20764;-53
2021/03/11 04:50:51;;;;;;;15.05;8.73;;;8.10;94.10;;;;;;5077131;28;20047;-54
2021/03/11 04:53:21;;;;;;;14.95;8.15;;;8.00;94.10;;;;;;5079989;28;20071;-54
2021/03/11 04:55:47;;;;;;;14.65;8.52;;;8.10;94.00;;;;;;5078049;28;20044;-54
2021/03/11 04:58:14;;;;;;;14.00;8.18;;;8.20;94.00;;;;;;5078219;28;20047;-55
2021/03/11 05:00:48;;;;;;;15.73;9.60;;;8.20;93.80;;;;;;5077379;28;20051;-54
2021/03/11 05:03:15;;;;;;;16.38;9.48;;;8.20;93.80;;;;;;5076276;28;20040;-54
2021/03/11 05:05:43;;;;;;;14.70;9.20;;;8.20;93.80;;;;;;5077239;28;20042;-53
2021/03/11 05:08:09;;;;;;;14.75;8.70;;;8.10;94.00;;;;;;5076648;28;20079;-54
2021/03/11 05:10:36;;;;;;;16.92;9.85;;;8.20;94.10;;;;;;5077433;28;20048;-53
2021/03/11 05:13:03;;;;;;;14.15;8.38;;;8.20;93.90;;;;;;5072694;28;20036;-54
2021/03/11 05:15:29;;;;;;;16.77;9.70;;;8.20;94.00;;;;;;5082133;28;20040;-54
2021/03/11 05:17:58;;;;;;;14.15;8.88;;;8.30;93.90;;;;;;5078854;28;20032;-54
2021/03/11 05:20:25;;;;;;;16.65;9.77;;;8.40;93.80;;;;;;5083176;28;20047;-52
2021/03/11 05:22:55;;;;;;;16.73;10.02;;;8.50;93.60;;;;;;5078417;28;20094;-57
2021/03/11 05:25:21;;;;;;;16.23;10.13;;;8.50;93.50;;;;;;5078363;28;20063;-57
2021/03/11 05:27:47;;;;;;;13.70;9.10;;;8.50;93.50;;;;;;5078057;28;20044;-57
2021/03/11 05:30:14;;;;;;;14.75;8.98;;;8.50;93.40;;;;;;5077783;28;20032;-57
2021/03/11 05:32:40;;;;;;;15.93;10.13;;;8.60;93.40;;;;;;5077145;28;20048;-56
2021/03/11 05:35:06;;;;;;;19.85;10.98;;;8.60;93.50;;;;;;5073500;28;20040;-58
2021/03/11 05:37:32;;;;;;;17.92;10.90;;;8.60;93.40;;;;;;5075330;28;20045;-58
2021/03/11 05:39:58;;;;;;;14.70;9.32;;;8.60;93.50;;;;;;5075373;28;20067;-57
2021/03/11 05:42:25;;;;;;;15.88;10.27;;;8.70;93.60;;;;;;5073654;28;20461;-57
2021/03/11 05:44:54;;;;;;;18.55;11.23;;;8.60;93.50;;;;;;5074851;28;20646;-58
2021/03/11 05:47:21;;;;;;;20.95;12.25;;;8.70;93.60;;;;;;5077903;28;20063;-57
2021/03/11 05:49:48;;;;;;;17.40;11.00;;;8.60;93.70;;;;;;5074925;28;20512;-58
2021/03/11 05:52:14;;;;;;;16.67;9.77;;;8.60;93.80;;;;;;5074032;28;20039;-58
2021/03/11 05:54:41;;;;;;;19.23;12.55;;;8.80;93.70;;;;;;5073977;28;20481;-58
2021/03/11 05:57:08;;;;;;;19.25;11.18;;;8.70;93.50;;;;;;5074986;28;20112;-57
2021/03/11 05:59:34;;;;;;;19.63;11.48;;;8.70;93.70;;;;;;5072670;28;20403;-57
2021/03/11 06:02:06;;;;;;;19.20;12.85;;;8.70;93.90;;;;;;5066778;28;20440;-58
2021/03/11 06:04:36;;;;;;;19.08;12.05;;;8.70;93.60;;;;;;5073572;28;20041;-58
2021/03/11 06:07:02;;;;;;;18.13;10.45;;;8.80;93.90;;;;;;5066612;28;20062;-56
2021/03/11 06:09:29;;;;;;;18.50;11.23;;;8.70;93.90;;;;;;5073775;28;20041;-58
2021/03/11 06:11:56;;;;;;;20.58;11.02;;;8.80;93.80;;;;;;5075152;28;20994;-58
2021/03/11 06:14:25;;;;;;;19.15;11.07;;;8.90;93.80;;;;;;5067653;28;20131;-57
2021/03/11 06:16:58;;;;;;;17.48;11.13;;;8.80;93.80;;;;;;5058261;28;20044;-58
2021/03/11 06:19:24;;;;;;;23.67;12.15;;;8.80;93.80;;;;;;5064122;28;20073;-57
2021/03/11 06:21:53;;;;;;;20.73;11.93;;;8.80;94.00;;;;;;5055488;28;20036;-58
2021/03/11 06:24:21;;;;;;;17.50;9.85;;;8.80;94.00;;;;;;5066532;28;20036;-58
2021/03/11 06:26:48;;;;;;;19.40;12.00;;;8.90;94.00;;;;;;5069729;28;20115;-58
2021/03/11 06:29:16;;;;;;;18.20;11.00;;;8.90;93.70;;;;;;5063686;28;20044;-56
2021/03/11 06:31:42;;;;;;;21.95;11.88;;;9.00;93.80;;;;;;5073538;28;20098;-57
2021/03/11 06:34:20;;;;;;;21.60;11.90;;;9.00;93.90;;;;;;5072860;28;20052;-56
2021/03/11 06:36:46;;;;;;;18.85;11.20;;;9.10;93.80;;;;;;5071886;28;20040;-57
2021/03/11 06:39:26;;;;;;;20.60;11.23;;;9.00;93.50;;;;;;5067417;28;20523;-54
2021/03/11 06:41:52;;;;;;;18.83;10.80;;;9.10;93.60;;;;;;5065303;28;20075;-54
2021/03/11 06:44:31;;;;;;;16.48;11.05;;;9.20;93.40;;;;;;5064724;28;20076;-55
2021/03/11 06:47:00;;;;;;;18.88;10.50;;;9.20;93.40;;;;;;5070338;28;20553;-56
2021/03/11 06:49:27;;;;;;;17.30;10.43;;;9.30;93.20;;;;;;5073767;28;20086;-55
2021/03/11 06:52:10;;;;;;;16.88;8.98;;;9.30;93.00;;;;;;5070690;28;20071;-57
2021/03/11 06:54:51;;;;;;;14.32;8.55;;;9.30;93.20;;;;;;5069953;28;20052;-56
2021/03/11 06:57:37;;;;;;;16.80;9.43;;;9.30;93.50;;;;;;5074051;28;20365;-55
2021/03/11 07:00:24;;;;;;;13.35;8.25;;;9.30;93.10;;;;;;5069042;28;20041;-53
2021/03/11 07:02:57;;;;;;;13.27;8.25;;;9.40;92.90;;;;;;5066926;28;20405;-56
2021/03/11 07:05:25;;;;;;;15.63;9.43;;;9.40;92.80;;;;;;5073356;28;20101;-55
2021/03/11 07:08:08;;;;;;;17.02;9.65;;;9.40;92.70;;;;;;5067012;28;20037;-55
2021/03/11 07:10:36;;;;;;;15.90;9.48;;;9.50;92.70;;;;;;5073587;28;20127;-55
2021/03/11 07:13:04;;;;;;;15.70;7.90;;;9.40;92.80;;;;;;5076206;28;20044;-55
2021/03/11 07:15:31;;;;;;;14.10;8.75;;;9.50;92.80;;;;;;5073660;28;20048;-55
2021/03/11 07:17:59;;;;;;;15.65;9.57;;;9.50;92.70;;;;;;5066648;28;20059;-55
2021/03/11 07:20:27;;;;;;;14.52;9.77;;;9.50;92.50;;;;;;5070808;28;20044;-55
2021/03/11 07:23:09;;;;;;;18.98;9.75;;;9.60;92.50;;;;;;5075917;28;20044;-55
2021/03/11 07:25:43;;;;;;;17.02;9.38;;;9.60;92.50;;;;;;5072671;28;20045;-56
2021/03/11 07:28:30;;;;;;;15.68;9.55;;;9.70;92.30;;;;;;5067537;28;20603;-56
2021/03/11 07:31:00;;;;;;;17.15;8.85;;;9.70;92.30;;;;;;5066737;28;20056;-56
2021/03/11 07:33:29;;;;;;;16.42;9.63;;;9.70;92.20;;;;;;5067917;28;20097;-55
2021/03/11 07:35:58;;;;;;;17.95;8.52;;;9.80;92.20;;;;;;5068821;28;20043;-55
2021/03/11 07:38:28;;;;;;;17.10;8.90;;;9.90;91.80;;;;;;5068936;28;20038;-55
2021/03/11 07:40:57;;;;;;;16.42;8.40;;;10.00;91.90;;;;;;5068755;28;20036;-53
2021/03/11 07:43:25;;;;;;;18.00;8.65;;;10.00;91.80;;;;;;5068190;28;20032;-56
2021/03/11 07:45:53;;;;;;;16.33;7.57;;;10.10;91.20;;;;;;5068854;28;20515;-54
2021/03/11 07:48:20;;;;;;;20.55;7.85;;;10.20;91.20;;;;;;5074585;28;20029;-55
2021/03/11 07:50:46;;;;;;;14.38;7.05;;;10.20;91.10;;;;;;5053088;28;20424;-56
2021/03/11 07:53:12;;;;;;;14.95;7.40;;;10.30;90.80;;;;;;5067318;28;20037;-56
2021/03/11 07:55:39;;;;;;;14.65;7.20;;;10.30;90.80;;;;;;5070463;28;20492;-55
2021/03/11 07:58:08;;;;;;;15.07;6.30;;;10.30;90.60;;;;;;5062636;28;20041;-54
2021/03/11 08:00:34;;;;;;;13.57;6.53;;;10.40;90.00;;;;;;5069132;28;20044;-56
2021/03/11 08:03:15;;;;;;;13.95;6.05;;;10.40;89.70;;;;;;5073333;28;20077;-56
2021/03/11 08:05:41;;;;;;;13.48;6.05;;;10.50;89.10;;;;;;5066552;28;20033;-55
2021/03/11 08:08:29;;;;;;;13.57;6.03;;;10.50;89.50;;;;;;5065292;28;20032;-56
2021/03/11 08:10:59;;;;;;;11.68;5.72;;;10.40;89.00;;;;;;5064694;28;20041;-56
2021/03/11 08:13:36;;;;;;;16.73;5.63;;;10.50;88.60;;;;;;5071270;28;20048;-56
2021/03/11 08:16:22;;;;;;;16.73;6.05;;;10.40;88.40;;;;;;5068323;28;20401;-57
2021/03/11 08:18:50;;;;;;;9.65;4.60;;;10.40;88.30;;;;;;5065586;28;20496;-56
2021/03/11 08:21:24;;;;;;;15.85;5.30;;;10.50;87.00;;;;;;5069953;28;20048;-56
2021/03/11 08:23:51;;;;;;;15.02;4.25;;;10.50;86.10;;;;;;5069186;28;20515;-56
2021/03/11 08:26:37;;;;;;;12.88;4.43;;;10.50;85.90;;;;;;5069870;28;20052;-55
2021/03/11 08:29:23;;;;;;;15.98;4.63;;;10.50;85.30;;;;;;5059403;28;20074;-55
2021/03/11 08:31:49;;;;;;;20.15;4.57;;;10.60;84.90;;;;;;5050887;28;20055;-56
2021/03/11 08:34:33;;;;;;;17.90;3.85;;;10.60;84.20;;;;;;5069209;28;20037;-56
2021/03/11 08:37:21;;;;;;;19.25;4.13;;;10.70;83.40;;;;;;5073472;28;20041;-56
2021/03/11 08:39:48;;;;;;;24.30;4.40;;;10.80;82.30;;;;;;5068676;28;20516;-56
2021/03/11 08:42:52;;;;;;;22.65;4.43;;;10.80;82.60;;;;;;5076676;28;20035;-55
2021/03/11 08:45:36;;;;;;;20.05;4.07;;;10.80;81.70;;;;;;5066832;28;20137;-56
2021/03/11 08:48:18;;;;;;;24.38;4.97;;;10.90;81.40;;;;;;5072438;28;20043;-56
2021/03/11 08:50:46;;;;;;;27.73;5.43;;;10.90;82.00;;;;;;5068592;28;20123;-56
2021/03/11 08:53:12;;;;;;;21.50;3.88;;;11.00;81.80;;;;;;5073944;28;20037;-56
2021/03/11 08:55:41;;;;;;;25.58;5.00;;;11.00;79.90;;;;;;5073026;28;20105;-56
2021/03/11 08:58:28;;;;;;;25.98;4.88;;;10.90;80.70;;;;;;5031896;28;20052;-56
2021/03/11 09:00:59;;;;;;;24.75;5.43;;;10.90;81.00;;;;;;5071627;28;20053;-55
2021/03/11 09:03:55;;;;;;;23.25;4.00;;;10.90;79.60;;;;;;5069988;28;20043;-54
2021/03/11 09:06:49;;;;;;;29.50;5.05;;;11.00;79.80;;;;;;5059052;28;20102;-56
2021/03/11 09:09:15;;;;;;;22.35;4.30;;;11.00;79.00;;;;;;5072341;28;20043;-56
2021/03/11 09:11:54;;;;;;;26.88;4.43;;;11.00;78.10;;;;;;5075476;28;20178;-56
2021/03/11 09:14:24;;;;;;;27.05;4.63;;;11.00;78.90;;;;;;5072077;28;20101;-57
2021/03/11 09:16:52;;;;;;;25.67;4.45;;;11.00;78.40;;;;;;5075572;28;20392;-53
2021/03/11 09:19:18;;;;;;;25.20;4.40;;;11.00;77.20;;;;;;5068291;28;20036;-56
2021/03/11 09:21:45;;;;;;;20.08;4.07;;;11.00;76.60;;;;;;5074020;28;20056;-57
2021/03/11 09:24:20;;;;;;;29.45;4.60;;;11.00;77.80;;;;;;5071909;28;20131;-56
2021/03/11 09:26:46;;;;;;;31.10;4.53;;;11.10;75.60;;;;;;5069978;28;20037;-57
2021/03/11 09:29:14;;;;;;;21.00;4.43;;;11.00;76.70;;;;;;5073235;28;20043;-56
2021/03/11 09:31:40;;;;;;;26.38;4.45;;;11.10;77.40;;;;;;5073141;28;20036;-56
2021/03/11 09:34:07;;;;;;;26.73;4.95;;;11.10;77.10;;;;;;5072653;28;20253;-55
2021/03/11 09:36:33;;;;;;;27.55;4.60;;;11.20;77.60;;;;;;5072756;28;20044;-56
2021/03/11 09:39:07;;;;;;;21.92;4.72;;;11.30;75.20;;;;;;5071365;28;20485;-57
2021/03/11 09:41:33;;;;;;;23.70;4.32;;;11.30;75.30;;;;;;5069575;28;20709;-56
2021/03/11 09:44:06;;;;;;;24.60;4.55;;;11.40;73.80;;;;;;5070379;28;20064;-57
2021/03/11 09:46:33;;;;;;;24.85;4.82;;;11.30;72.40;;;;;;5073824;28;20039;-56
2021/03/11 09:48:59;;;;;;;25.05;5.03;;;11.30;73.20;;;;;;5072779;28;20040;-57
2021/03/11 09:51:26;;;;;;;27.98;5.57;;;11.30;72.70;;;;;;5072765;28;20052;-56
2021/03/11 09:54:06;;;;;;;30.10;5.68;;;11.30;72.70;;;;;;5063609;28;20064;-56
2021/03/11 09:56:45;;;;;;;26.00;5.05;;;11.20;73.10;;;;;;5072567;28;20401;-56
2021/03/11 09:59:15;;;;;;;35.97;4.75;;;11.20;72.50;;;;;;5067229;28;20040;-54
2021/03/11 10:01:42;;;;;;;26.70;4.70;;;11.20;72.90;;;;;;5070937;28;20048;-56
2021/03/11 10:04:13;;;;;;;26.08;5.35;;;11.20;72.40;;;;;;5071799;28;20037;-57
2021/03/11 10:06:48;;;;;;;25.25;5.35;;;11.20;73.00;;;;;;5071431;28;20581;-57
2021/03/11 10:09:14;;;;;;;25.13;4.50;;;11.20;72.90;;;;;;5079104;28;20040;-57
2021/03/11 10:11:43;;;;;;;21.15;3.90;;;11.30;72.80;;;;;;5071505;28;20523;-57
2021/03/11 10:14:26;;;;;;;30.13;5.20;;;11.20;72.50;;;;;;5073228;28;20040;-56
2021/03/11 10:16:53;;;;;;;;;;;11.40;72.90;;;;;;5077656;28;20055;-57
2021/03/11 10:19:40;;;;;;;25.42;6.22;;;11.30;73.30;;;;;;5072481;28;20007;-57
2021/03/11 10:22:10;;;;;;;27.35;4.55;;;11.40;73.20;;;;;;5064411;28;20079;-57
2021/03/11 10:24:49;;;;;;;20.85;4.53;;;11.40;72.70;;;;;;5055841;28;20047;-55
2021/03/11 10:27:26;;;;;;;21.92;3.85;;;11.40;73.10;;;;;;5070204;28;20032;-57
2021/03/11 10:30:10;;;;;;;25.33;4.70;;;11.40;72.30;;;;;;5071946;28;20055;-57
2021/03/11 10:32:41;;;;;;;20.48;4.07;;;11.40;72.20;;;;;;5072240;28;20036;-56
2021/03/11 10:35:10;;;;;;;28.63;5.30;;;11.30;73.90;;;;;;5073114;28;20045;-56
2021/03/11 10:37:38;;;;;;;23.70;4.65;;;11.10;75.70;;;;;;5065352;28;20048;-56
2021/03/11 10:40:07;;;;;;;31.73;4.70;;;11.00;77.60;;;;;;5066636;28;20417;-57
2021/03/11 10:42:41;;;;;;;25.13;4.22;;;10.80;79.00;;;;;;5063959;28;20436;-56
2021/03/11 10:45:08;;;;;;;21.17;4.10;;;10.70;78.80;;;;;;5073484;28;20396;-57
2021/03/11 10:47:35;;;;;;;28.63;5.00;;;10.60;79.00;;;;;;5070441;28;20106;-55
2021/03/11 10:50:00;;;;;;;25.83;5.30;;;10.40;80.50;;;;;;5071374;28;20048;-56
2021/03/11 10:52:26;;;;;;;30.75;5.20;;;10.40;82.60;;;;;;5068609;28;20056;-56
2021/03/11 10:54:52;;;;;;;27.58;4.97;;;10.20;83.90;;;;;;5072736;28;20047;-56
2021/03/11 10:57:20;;;;;;;32.25;5.35;;;10.10;84.40;;;;;;5071552;28;20099;-56
2021/03/11 10:59:53;;;;;;;29.80;4.80;;;10.00;84.80;;;;;;5071769;28;20040;-57
2021/03/11 11:02:23;;;;;;;30.77;5.38;;;10.00;85.70;;;;;;5070359;28;20040;-55
2021/03/11 11:04:49;;;;;;;25.65;5.18;;;9.90;86.70;;;;;;5065444;28;20040;-56
2021/03/11 11:07:16;;;;;;;26.10;5.18;;;9.90;86.60;;;;;;5067638;28;20033;-56
2021/03/11 11:09:43;;;;;;;32.80;6.38;;;10.00;85.70;;;;;;5071386;28;20503;-55
2021/03/11 11:12:13;;;;;;;33.40;6.40;;;10.00;86.50;;;;;;5067330;28;20044;-56
2021/03/11 11:14:39;;;;;;;26.30;5.03;;;9.90;87.10;;;;;;5068255;28;20052;-56
2021/03/11 11:17:05;;;;;;;41.33;6.38;;;9.90;87.00;;;;;;5072339;28;20518;-56
2021/03/11 11:19:30;;;;;;;35.70;6.35;;;9.80;88.30;;;;;;5077823;28;20136;-55
2021/03/11 11:21:56;;;;;;;34.38;5.63;;;9.80;88.30;;;;;;5071899;28;20051;-54
2021/03/11 11:24:22;;;;;;;30.02;5.68;;;9.70;88.80;;;;;;5072017;28;20044;-56
2021/03/11 11:26:47;;;;;;;34.80;6.00;;;9.70;88.30;;;;;;5070671;28;20048;-55
2021/03/11 11:29:13;;;;;;;29.13;6.07;;;9.70;89.30;;;;;;5071022;28;20036;-56
2021/03/11 11:31:39;;;;;;;31.75;5.18;;;9.70;89.60;;;;;;5067641;28;20236;-55
2021/03/11 11:34:05;;;;;;;35.75;5.57;;;9.70;89.70;;;;;;5065636;28;20036;-57
2021/03/11 11:36:31;;;;;;;25.77;5.03;;;9.70;89.90;;;;;;5070210;28;20455;-55
2021/03/11 11:38:56;;;;;;;33.55;5.85;;;9.70;89.70;;;;;;5066626;28;20044;-56
2021/03/11 11:41:22;;;;;;;32.30;5.03;;;9.70;90.10;;;;;;5070082;28;20405;-55
2021/03/11 11:43:47;;;;;;;37.67;6.20;;;9.60;89.90;;;;;;5069136;28;20038;-56
2021/03/11 11:46:13;;;;;;;26.02;5.70;;;9.60;90.20;;;;;;5070060;28;20481;-56
2021/03/11 11:48:39;;;;;;;27.33;4.75;;;9.50;90.20;;;;;;5070664;28;20060;-55
2021/03/11 11:51:05;;;;;;;25.95;4.25;;;9.50;90.40;;;;;;5070418;28;20052;-53
2021/03/11 11:53:32;;;;;;;30.92;5.00;;;9.30;90.90;;;;;;5066658;28;20025;-55
2021/03/11 11:55:57;;;;;;;22.50;4.03;;;9.30;90.80;;;;;;5072278;28;20070;-56
2021/03/11 11:58:23;;;;;;;27.75;4.82;;;9.30;90.60;;;;;;5078008;28;20052;-56
2021/03/11 12:00:49;;;;;;;32.55;5.13;;;9.20;91.00;;;;;;5087659;28;20373;-56
2021/03/11 12:03:15;;;;;;;25.40;4.07;;;9.10;91.70;;;;;;5087116;28;20036;-56
2021/03/11 12:05:41;;;;;;;35.28;5.43;;;9.10;91.40;;;;;;5081145;28;20408;-56
2021/03/11 12:08:08;;;;;;;34.17;6.20;;;9.10;91.50;;;;;;5079976;28;20044;-55
2021/03/11 12:10:34;;;;;;;19.58;3.72;;;9.10;91.40;;;;;;5076218;28;20044;-54
2021/03/11 12:13:00;;;;;;;24.00;3.70;;;9.20;91.10;;;;;;5072643;28;20047;-56
2021/03/11 12:15:32;;;;;;;23.33;4.28;;;9.20;91.00;;;;;;5068944;28;20028;-56
2021/03/11 12:17:58;;;;;;;16.90;3.88;;;9.20;90.60;;;;;;5063694;28;20105;-55
2021/03/11 12:20:24;;;;;;;26.10;3.95;;;9.30;90.60;;;;;;5065805;28;20044;-57
2021/03/11 12:22:50;;;;;;;28.50;4.20;;;9.30;90.30;;;;;;5074568;28;20052;-57
2021/03/11 12:25:16;;;;;;;22.08;4.75;;;9.30;90.60;;;;;;5068010;28;20059;-57
2021/03/11 12:27:42;;;;;;;22.95;3.85;;;9.30;90.20;;;;;;5065095;28;20033;-55
2021/03/11 12:30:08;;;;;;;27.40;4.35;;;9.40;90.10;;;;;;5067310;28;20044;-57
2021/03/11 12:32:33;;;;;;;22.17;4.28;;;9.50;88.90;;;;;;5069938;28;20059;-58
2021/03/11 12:34:59;;;;;;;26.83;5.10;;;9.60;89.20;;;;;;5067369;28;20041;-57
2021/03/11 12:37:25;;;;;;;31.42;5.05;;;9.70;87.50;;;;;;5080050;28;20499;-55
2021/03/11 12:39:51;;;;;;;32.50;5.15;;;9.80;86.70;;;;;;5080935;28;20135;-58
2021/03/11 12:42:16;;;;;;;25.00;4.45;;;9.80;86.60;;;;;;5067334;28;20399;-58
2021/03/11 12:44:45;;;;;;;20.30;4.55;;;9.80;86.50;;;;;;5072874;28;20089;-58
2021/03/11 12:47:12;;;;;;;31.88;4.72;;;9.90;86.00;;;;;;5065179;28;20132;-57
2021/03/11 12:49:38;;;;;;;23.55;3.35;;;10.00;85.40;;;;;;5074819;28;20040;-57
2021/03/11 12:52:04;;;;;;;21.63;4.05;;;10.10;85.60;;;;;;5070319;28;20105;-58